sensor_id;sensor_type;location;lat;lon;timestamp;temperature;humidity
42365;DHT22;28498;54.400;18.566;2022-08-25T00:01:33;19.90;99.90
42365;DHT22;28498;54.400;18.566;2022-08-25T00:04:05;19.90;99.90
42365;DHT22;28498;54.400;18.566;2022-08-25T00:06:32;19.90;99.90
42365;DHT22;28498;54.400;18.566;2022-08-25T00:08:59;19.90;99.90
42365;DHT22;28498;54.400;18.566;2022-08-25T00:11:30;19.90;99.90
42365;DHT22;28498;54.400;18.566;2022-08-25T00:14:02;19.80;99.90
42365;DHT22;28498;54.400;18.566;2022-08-25T00:16:30;19.80;99.90
42365;DHT22;28498;54.400;18.566;2022-08-25T00:19:01;19.90;99.90
42365;DHT22;28498;54.400;18.566;2022-08-25T00:21:31;19.90;99.90
42365;DHT22;28498;54.400;18.566;2022-08-25T00:23:58;19.90;99.90
42365;DHT22;28498;54.400;18.566;2022-08-25T00:26:29;19.90;99.90
42365;DHT22;28498;54.400;18.566;2022-08-25T00:28:56;19.90;99.90
42365;DHT22;28498;54.400;18.566;2022-08-25T00:31:27;19.90;99.90
42365;DHT22;28498;54.400;18.566;2022-08-25T00:34:07;19.90;99.90
42365;DHT22;28498;54.400;18.566;2022-08-25T00:36:35;19.90;99.90
42365;DHT22;28498;54.400;18.566;2022-08-25T00:39:04;19.90;99.90
42365;DHT22;28498;54.400;18.566;2022-08-25T00:41:31;19.90;99.90
42365;DHT22;28498;54.400;18.566;2022-08-25T00:44:03;19.90;99.90
42365;DHT22;28498;54.400;18.566;2022-08-25T00:46:34;19.90;99.90
42365;DHT22;28498;54.400;18.566;2022-08-25T00:49:14;19.90;99.90
42365;DHT22;28498;54.400;18.566;2022-08-25T00:52:18;19.90;99.90
42365;DHT22;28498;54.400;18.566;2022-08-25T00:57:24;19.90;99.90
42365;DHT22;28498;54.400;18.566;2022-08-25T01:00:03;19.90;99.90
42365;DHT22;28498;54.400;18.566;2022-08-25T01:02:31;19.80;99.90
42365;DHT22;28498;54.400;18.566;2022-08-25T01:04:58;19.90;99.90
42365;DHT22;28498;54.400;18.566;2022-08-25T01:07:25;19.80;99.90
42365;DHT22;28498;54.400;18.566;2022-08-25T01:09:52;19.90;99.90
42365;DHT22;28498;54.400;18.566;2022-08-25T01:12:20;19.80;99.90
42365;DHT22;28498;54.400;18.566;2022-08-25T01:14:48;19.80;99.90
42365;DHT22;28498;54.400;18.566;2022-08-25T01:17:16;19.80;99.90
42365;DHT22;28498;54.400;18.566;2022-08-25T01:19:43;19.80;99.90
42365;DHT22;28498;54.400;18.566;2022-08-25T01:22:10;19.80;99.90
42365;DHT22;28498;54.400;18.566;2022-08-25T01:24:51;19.90;99.90
42365;DHT22;28498;54.400;18.566;2022-08-25T01:27:22;20.00;99.90
42365;DHT22;28498;54.400;18.566;2022-08-25T01:29:49;20.10;99.90
42365;DHT22;28498;54.400;18.566;2022-08-25T01:32:16;20.10;99.90
42365;DHT22;28498;54.400;18.566;2022-08-25T01:34:44;20.00;99.90
42365;DHT22;28498;54.400;18.566;2022-08-25T01:37:12;20.00;99.90
42365;DHT22;28498;54.400;18.566;2022-08-25T01:39:41;20.00;99.90
42365;DHT22;28498;54.400;18.566;2022-08-25T01:44:55;20.00;99.90
42365;DHT22;28498;54.400;18.566;2022-08-25T01:47:23;20.00;99.90
42365;DHT22;28498;54.400;18.566;2022-08-25T01:49:50;20.00;99.90
42365;DHT22;28498;54.400;18.566;2022-08-25T01:52:27;20.00;99.90
42365;DHT22;28498;54.400;18.566;2022-08-25T01:54:55;20.00;99.90
42365;DHT22;28498;54.400;18.566;2022-08-25T01:57:23;20.00;99.90
42365;DHT22;28498;54.400;18.566;2022-08-25T01:59:50;20.00;99.90
42365;DHT22;28498;54.400;18.566;2022-08-25T02:02:17;20.00;99.90
42365;DHT22;28498;54.400;18.566;2022-08-25T02:04:44;20.00;99.90
42365;DHT22;28498;54.400;18.566;2022-08-25T02:07:11;20.00;99.90
42365;DHT22;28498;54.400;18.566;2022-08-25T02:09:39;20.00;99.90
42365;DHT22;28498;54.400;18.566;2022-08-25T02:12:07;20.00;99.90
42365;DHT22;28498;54.400;18.566;2022-08-25T02:14:35;20.00;99.90
42365;DHT22;28498;54.400;18.566;2022-08-25T02:17:03;20.00;99.90
42365;DHT22;28498;54.400;18.566;2022-08-25T02:19:31;20.00;99.90
42365;DHT22;28498;54.400;18.566;2022-08-25T02:21:58;20.10;99.90
42365;DHT22;28498;54.400;18.566;2022-08-25T02:24:25;20.10;99.90
42365;DHT22;28498;54.400;18.566;2022-08-25T02:26:52;20.10;99.90
42365;DHT22;28498;54.400;18.566;2022-08-25T02:29:19;20.10;99.90
42365;DHT22;28498;54.400;18.566;2022-08-25T02:31:46;20.20;99.90
42365;DHT22;28498;54.400;18.566;2022-08-25T02:34:14;20.20;99.90
42365;DHT22;28498;54.400;18.566;2022-08-25T02:36:42;20.30;99.90
42365;DHT22;28498;54.400;18.566;2022-08-25T02:39:10;20.30;99.90
42365;DHT22;28498;54.400;18.566;2022-08-25T02:41:37;20.30;99.90
42365;DHT22;28498;54.400;18.566;2022-08-25T02:44:06;20.30;99.90
42365;DHT22;28498;54.400;18.566;2022-08-25T02:46:33;20.40;99.90
42365;DHT22;28498;54.400;18.566;2022-08-25T02:49:00;20.50;99.90
42365;DHT22;28498;54.400;18.566;2022-08-25T02:51:27;20.60;99.90
42365;DHT22;28498;54.400;18.566;2022-08-25T02:53:59;20.70;99.90
42365;DHT22;28498;54.400;18.566;2022-08-25T02:56:28;20.70;99.90
42365;DHT22;28498;54.400;18.566;2022-08-25T02:58:56;20.70;99.90
42365;DHT22;28498;54.400;18.566;2022-08-25T03:01:23;20.70;99.90
42365;DHT22;28498;54.400;18.566;2022-08-25T03:03:55;20.80;99.90
42365;DHT22;28498;54.400;18.566;2022-08-25T03:06:23;20.70;99.90
42365;DHT22;28498;54.400;18.566;2022-08-25T03:08:51;20.70;99.90
42365;DHT22;28498;54.400;18.566;2022-08-25T03:11:19;20.80;99.90
42365;DHT22;28498;54.400;18.566;2022-08-25T03:13:46;20.90;99.90
42365;DHT22;28498;54.400;18.566;2022-08-25T03:16:17;20.90;99.90
42365;DHT22;28498;54.400;18.566;2022-08-25T03:18:44;20.80;99.90
42365;DHT22;28498;54.400;18.566;2022-08-25T03:21:12;20.90;99.90
42365;DHT22;28498;54.400;18.566;2022-08-25T03:23:44;20.90;99.90
42365;DHT22;28498;54.400;18.566;2022-08-25T03:26:12;20.80;99.90
42365;DHT22;28498;54.400;18.566;2022-08-25T03:28:58;20.90;99.90
42365;DHT22;28498;54.400;18.566;2022-08-25T03:31:26;20.90;99.90
42365;DHT22;28498;54.400;18.566;2022-08-25T03:33:54;20.80;99.90
42365;DHT22;28498;54.400;18.566;2022-08-25T03:36:21;20.80;99.90
42365;DHT22;28498;54.400;18.566;2022-08-25T03:38:48;20.80;99.90
42365;DHT22;28498;54.400;18.566;2022-08-25T03:41:21;20.80;99.90
42365;DHT22;28498;54.400;18.566;2022-08-25T03:43:51;20.90;99.90
42365;DHT22;28498;54.400;18.566;2022-08-25T03:46:21;20.90;99.90
42365;DHT22;28498;54.400;18.566;2022-08-25T03:48:50;20.90;99.90
42365;DHT22;28498;54.400;18.566;2022-08-25T03:51:22;20.80;99.90
42365;DHT22;28498;54.400;18.566;2022-08-25T03:53:50;20.80;99.90
42365;DHT22;28498;54.400;18.566;2022-08-25T03:56:18;20.80;99.90
42365;DHT22;28498;54.400;18.566;2022-08-25T03:58:45;20.70;99.90
42365;DHT22;28498;54.400;18.566;2022-08-25T04:01:14;20.70;99.90
42365;DHT22;28498;54.400;18.566;2022-08-25T04:03:43;20.60;99.90
42365;DHT22;28498;54.400;18.566;2022-08-25T04:06:11;20.60;99.90
42365;DHT22;28498;54.400;18.566;2022-08-25T04:08:38;20.60;99.90
42365;DHT22;28498;54.400;18.566;2022-08-25T04:11:11;20.60;99.90
42365;DHT22;28498;54.400;18.566;2022-08-25T04:13:39;20.60;99.90
42365;DHT22;28498;54.400;18.566;2022-08-25T04:16:13;20.60;99.90
42365;DHT22;28498;54.400;18.566;2022-08-25T04:18:41;20.70;99.90
42365;DHT22;28498;54.400;18.566;2022-08-25T04:21:09;20.70;99.90
42365;DHT22;28498;54.400;18.566;2022-08-25T04:23:38;20.80;99.90
42365;DHT22;28498;54.400;18.566;2022-08-25T04:26:15;20.90;99.90
42365;DHT22;28498;54.400;18.566;2022-08-25T04:28:43;20.90;99.90
42365;DHT22;28498;54.400;18.566;2022-08-25T04:31:11;21.00;99.90
42365;DHT22;28498;54.400;18.566;2022-08-25T04:33:40;21.00;99.90
42365;DHT22;28498;54.400;18.566;2022-08-25T04:36:09;21.00;99.90
42365;DHT22;28498;54.400;18.566;2022-08-25T04:38:39;21.00;99.90
42365;DHT22;28498;54.400;18.566;2022-08-25T04:41:09;21.00;99.90
42365;DHT22;28498;54.400;18.566;2022-08-25T04:43:37;21.10;99.90
42365;DHT22;28498;54.400;18.566;2022-08-25T04:46:11;21.10;99.90
42365;DHT22;28498;54.400;18.566;2022-08-25T04:48:39;21.10;99.90
42365;DHT22;28498;54.400;18.566;2022-08-25T04:51:12;21.20;99.90
42365;DHT22;28498;54.400;18.566;2022-08-25T04:53:40;21.20;99.90
42365;DHT22;28498;54.400;18.566;2022-08-25T04:56:11;21.30;99.90
42365;DHT22;28498;54.400;18.566;2022-08-25T04:58:39;21.30;99.90
42365;DHT22;28498;54.400;18.566;2022-08-25T05:01:12;21.30;99.90
42365;DHT22;28498;54.400;18.566;2022-08-25T05:03:42;21.30;99.90
42365;DHT22;28498;54.400;18.566;2022-08-25T05:06:09;21.30;99.90
42365;DHT22;28498;54.400;18.566;2022-08-25T05:08:41;21.30;99.90
42365;DHT22;28498;54.400;18.566;2022-08-25T05:11:13;21.40;99.90
42365;DHT22;28498;54.400;18.566;2022-08-25T05:13:41;21.50;99.90
42365;DHT22;28498;54.400;18.566;2022-08-25T05:16:08;21.50;99.90
42365;DHT22;28498;54.400;18.566;2022-08-25T05:18:37;21.60;99.90
42365;DHT22;28498;54.400;18.566;2022-08-25T05:21:15;21.70;99.90
42365;DHT22;28498;54.400;18.566;2022-08-25T05:23:43;21.80;99.90
42365;DHT22;28498;54.400;18.566;2022-08-25T05:26:13;21.80;99.90
42365;DHT22;28498;54.400;18.566;2022-08-25T05:28:47;21.90;99.90
42365;DHT22;28498;54.400;18.566;2022-08-25T05:31:15;21.80;99.90
42365;DHT22;28498;54.400;18.566;2022-08-25T05:33:42;21.80;99.90
42365;DHT22;28498;54.400;18.566;2022-08-25T05:36:11;21.80;99.90
42365;DHT22;28498;54.400;18.566;2022-08-25T05:38:39;21.80;99.90
42365;DHT22;28498;54.400;18.566;2022-08-25T05:41:10;21.90;99.90
42365;DHT22;28498;54.400;18.566;2022-08-25T05:43:40;21.90;99.90
42365;DHT22;28498;54.400;18.566;2022-08-25T05:46:08;21.90;99.90
42365;DHT22;28498;54.400;18.566;2022-08-25T05:48:35;21.70;99.90
42365;DHT22;28498;54.400;18.566;2022-08-25T05:51:04;21.70;99.90
42365;DHT22;28498;54.400;18.566;2022-08-25T05:53:33;21.70;99.90
42365;DHT22;28498;54.400;18.566;2022-08-25T05:56:00;21.70;99.90
42365;DHT22;28498;54.400;18.566;2022-08-25T05:58:28;21.80;99.90
42365;DHT22;28498;54.400;18.566;2022-08-25T06:00:57;21.80;99.90
42365;DHT22;28498;54.400;18.566;2022-08-25T06:03:45;21.90;99.90
42365;DHT22;28498;54.400;18.566;2022-08-25T06:06:14;22.00;99.90
42365;DHT22;28498;54.400;18.566;2022-08-25T06:08:44;22.10;99.90
42365;DHT22;28498;54.400;18.566;2022-08-25T06:11:12;22.20;99.90
42365;DHT22;28498;54.400;18.566;2022-08-25T06:13:39;22.30;99.90
42365;DHT22;28498;54.400;18.566;2022-08-25T06:16:06;22.40;99.90
42365;DHT22;28498;54.400;18.566;2022-08-25T06:18:34;22.40;99.90
42365;DHT22;28498;54.400;18.566;2022-08-25T06:21:12;22.50;99.90
42365;DHT22;28498;54.400;18.566;2022-08-25T06:23:40;22.50;99.90
42365;DHT22;28498;54.400;18.566;2022-08-25T06:26:10;22.60;99.90
42365;DHT22;28498;54.400;18.566;2022-08-25T06:28:47;22.60;99.90
42365;DHT22;28498;54.400;18.566;2022-08-25T06:31:14;22.60;99.90
42365;DHT22;28498;54.400;18.566;2022-08-25T06:33:42;22.40;99.90
42365;DHT22;28498;54.400;18.566;2022-08-25T06:36:09;22.70;99.90
42365;DHT22;28498;54.400;18.566;2022-08-25T06:38:36;22.80;99.90
42365;DHT22;28498;54.400;18.566;2022-08-25T06:41:05;22.90;99.90
42365;DHT22;28498;54.400;18.566;2022-08-25T06:43:33;22.90;99.90
42365;DHT22;28498;54.400;18.566;2022-08-25T06:46:10;22.80;99.90
42365;DHT22;28498;54.400;18.566;2022-08-25T06:48:38;22.90;99.90
42365;DHT22;28498;54.400;18.566;2022-08-25T06:51:11;22.90;99.90
42365;DHT22;28498;54.400;18.566;2022-08-25T06:53:40;22.80;99.90
42365;DHT22;28498;54.400;18.566;2022-08-25T06:56:08;22.90;99.90
42365;DHT22;28498;54.400;18.566;2022-08-25T06:58:36;23.10;99.90
42365;DHT22;28498;54.400;18.566;2022-08-25T07:01:23;23.30;99.90
42365;DHT22;28498;54.400;18.566;2022-08-25T07:03:56;23.10;99.90
42365;DHT22;28498;54.400;18.566;2022-08-25T07:06:28;23.10;99.90
42365;DHT22;28498;54.400;18.566;2022-08-25T07:08:58;23.30;99.90
42365;DHT22;28498;54.400;18.566;2022-08-25T07:11:25;23.40;99.90
42365;DHT22;28498;54.400;18.566;2022-08-25T07:13:53;23.50;99.90
42365;DHT22;28498;54.400;18.566;2022-08-25T07:16:20;23.10;99.90
42365;DHT22;28498;54.400;18.566;2022-08-25T07:18:49;23.10;99.90
42365;DHT22;28498;54.400;18.566;2022-08-25T07:21:16;23.00;99.90
42365;DHT22;28498;54.400;18.566;2022-08-25T07:23:48;22.80;99.90
42365;DHT22;28498;54.400;18.566;2022-08-25T07:26:22;22.80;99.90
42365;DHT22;28498;54.400;18.566;2022-08-25T07:29:13;23.10;99.90
42365;DHT22;28498;54.400;18.566;2022-08-25T07:31:41;23.00;99.90
42365;DHT22;28498;54.400;18.566;2022-08-25T07:34:08;23.00;99.90
42365;DHT22;28498;54.400;18.566;2022-08-25T07:36:55;23.10;99.90
42365;DHT22;28498;54.400;18.566;2022-08-25T07:39:23;23.20;99.90
42365;DHT22;28498;54.400;18.566;2022-08-25T07:41:51;23.20;99.90
42365;DHT22;28498;54.400;18.566;2022-08-25T07:44:22;23.10;99.90
42365;DHT22;28498;54.400;18.566;2022-08-25T07:46:53;23.20;99.90
42365;DHT22;28498;54.400;18.566;2022-08-25T07:49:22;23.30;99.90
42365;DHT22;28498;54.400;18.566;2022-08-25T07:51:51;23.40;99.90
42365;DHT22;28498;54.400;18.566;2022-08-25T07:54:33;23.30;99.90
42365;DHT22;28498;54.400;18.566;2022-08-25T07:57:02;23.20;99.90
42365;DHT22;28498;54.400;18.566;2022-08-25T07:59:29;23.00;99.90
42365;DHT22;28498;54.400;18.566;2022-08-25T08:02:09;22.70;99.90
42365;DHT22;28498;54.400;18.566;2022-08-25T08:04:46;22.60;99.90
42365;DHT22;28498;54.400;18.566;2022-08-25T08:07:16;22.80;99.90
42365;DHT22;28498;54.400;18.566;2022-08-25T08:09:43;23.00;99.90
42365;DHT22;28498;54.400;18.566;2022-08-25T08:12:11;23.10;99.90
42365;DHT22;28498;54.400;18.566;2022-08-25T08:14:40;23.10;99.90
42365;DHT22;28498;54.400;18.566;2022-08-25T08:17:11;22.90;99.90
42365;DHT22;28498;54.400;18.566;2022-08-25T08:19:39;22.70;99.90
42365;DHT22;28498;54.400;18.566;2022-08-25T08:22:11;22.70;99.90
42365;DHT22;28498;54.400;18.566;2022-08-25T08:24:41;22.40;99.90
42365;DHT22;28498;54.400;18.566;2022-08-25T08:27:21;22.50;99.90
42365;DHT22;28498;54.400;18.566;2022-08-25T08:29:48;22.50;99.90
42365;DHT22;28498;54.400;18.566;2022-08-25T08:32:16;22.50;99.90
42365;DHT22;28498;54.400;18.566;2022-08-25T08:34:44;22.50;99.90
42365;DHT22;28498;54.400;18.566;2022-08-25T08:37:17;22.50;99.90
42365;DHT22;28498;54.400;18.566;2022-08-25T08:39:48;22.40;99.90
42365;DHT22;28498;54.400;18.566;2022-08-25T08:56:08;21.70;99.90
42365;DHT22;28498;54.400;18.566;2022-08-25T08:58:57;21.70;99.90
42365;DHT22;28498;54.400;18.566;2022-08-25T09:01:34;21.70;99.90
42365;DHT22;28498;54.400;18.566;2022-08-25T09:04:08;21.60;99.90
42365;DHT22;28498;54.400;18.566;2022-08-25T09:06:44;21.70;99.90
42365;DHT22;28498;54.400;18.566;2022-08-25T09:09:13;21.60;99.90
42365;DHT22;28498;54.400;18.566;2022-08-25T09:12:10;21.50;99.90
42365;DHT22;28498;54.400;18.566;2022-08-25T09:15:06;21.50;99.90
42365;DHT22;28498;54.400;18.566;2022-08-25T09:23:27;21.40;99.90
42365;DHT22;28498;54.400;18.566;2022-08-25T09:31:42;21.30;99.90
42365;DHT22;28498;54.400;18.566;2022-08-25T09:44:24;21.40;99.90
42365;DHT22;28498;54.400;18.566;2022-08-25T09:47:06;21.60;99.90
42365;DHT22;28498;54.400;18.566;2022-08-25T09:49:44;21.70;99.90
42365;DHT22;28498;54.400;18.566;2022-08-25T09:52:32;21.80;99.90
42365;DHT22;28498;54.400;18.566;2022-08-25T09:57:35;21.90;99.90
42365;DHT22;28498;54.400;18.566;2022-08-25T10:00:35;21.80;99.90
42365;DHT22;28498;54.400;18.566;2022-08-25T10:06:10;22.10;99.90
42365;DHT22;28498;54.400;18.566;2022-08-25T10:14:21;22.60;99.90
42365;DHT22;28498;54.400;18.566;2022-08-25T10:16:52;22.60;99.90
42365;DHT22;28498;54.400;18.566;2022-08-25T10:19:36;22.60;99.90
42365;DHT22;28498;54.400;18.566;2022-08-25T10:22:24;22.70;99.90
42365;DHT22;28498;54.400;18.566;2022-08-25T10:24:58;23.10;99.90
42365;DHT22;28498;54.400;18.566;2022-08-25T10:30:24;23.00;99.90
42365;DHT22;28498;54.400;18.566;2022-08-25T10:33:21;23.10;99.90
42365;DHT22;28498;54.400;18.566;2022-08-25T10:36:05;23.10;99.90
42365;DHT22;28498;54.400;18.566;2022-08-25T10:38:35;23.10;99.90
42365;DHT22;28498;54.400;18.566;2022-08-25T10:41:27;23.20;99.90
42365;DHT22;28498;54.400;18.566;2022-08-25T10:53:38;23.70;99.90
42365;DHT22;28498;54.400;18.566;2022-08-25T10:56:17;23.60;99.90
42365;DHT22;28498;54.400;18.566;2022-08-25T10:59:29;23.70;99.90
42365;DHT22;28498;54.400;18.566;2022-08-25T11:05:06;23.80;99.90
42365;DHT22;28498;54.400;18.566;2022-08-25T11:07:41;23.70;99.90
42365;DHT22;28498;54.400;18.566;2022-08-25T11:10:12;24.00;99.90
42365;DHT22;28498;54.400;18.566;2022-08-25T11:12:59;24.10;99.90
42365;DHT22;28498;54.400;18.566;2022-08-25T11:15:30;23.90;99.90
42365;DHT22;28498;54.400;18.566;2022-08-25T11:18:07;23.70;99.90
42365;DHT22;28498;54.400;18.566;2022-08-25T11:23:52;23.60;99.90
42365;DHT22;28498;54.400;18.566;2022-08-25T11:26:26;23.90;99.90
42365;DHT22;28498;54.400;18.566;2022-08-25T11:29:15;23.80;99.90
42365;DHT22;28498;54.400;18.566;2022-08-25T11:31:48;23.70;99.90
42365;DHT22;28498;54.400;18.566;2022-08-25T11:34:20;24.00;99.90
42365;DHT22;28498;54.400;18.566;2022-08-25T11:37:00;24.10;99.90
42365;DHT22;28498;54.400;18.566;2022-08-25T11:45:32;24.30;99.90
42365;DHT22;28498;54.400;18.566;2022-08-25T11:51:39;24.30;99.90
42365;DHT22;28498;54.400;18.566;2022-08-25T11:54:17;24.40;99.90
42365;DHT22;28498;54.400;18.566;2022-08-25T11:57:23;24.30;99.90
42365;DHT22;28498;54.400;18.566;2022-08-25T12:11:00;24.00;99.90
42365;DHT22;28498;54.400;18.566;2022-08-25T12:13:46;24.00;99.90
42365;DHT22;28498;54.400;18.566;2022-08-25T12:19:27;23.80;99.90
42365;DHT22;28498;54.400;18.566;2022-08-25T12:25:00;24.00;99.90
42365;DHT22;28498;54.400;18.566;2022-08-25T12:30:23;23.20;99.90
42365;DHT22;28498;54.400;18.566;2022-08-25T12:35:32;23.50;99.90
42365;DHT22;28498;54.400;18.566;2022-08-25T12:38:09;23.40;99.90
42365;DHT22;28498;54.400;18.566;2022-08-25T12:45:52;23.50;99.90
42365;DHT22;28498;54.400;18.566;2022-08-25T12:51:17;23.60;99.90
42365;DHT22;28498;54.400;18.566;2022-08-25T12:54:11;23.60;99.90
42365;DHT22;28498;54.400;18.566;2022-08-25T12:56:57;23.70;99.90
42365;DHT22;28498;54.400;18.566;2022-08-25T12:59:37;23.70;99.90
42365;DHT22;28498;54.400;18.566;2022-08-25T13:10:54;23.50;99.90
42365;DHT22;28498;54.400;18.566;2022-08-25T13:16:21;23.60;99.90
42365;DHT22;28498;54.400;18.566;2022-08-25T13:18:55;23.80;99.90
42365;DHT22;28498;54.400;18.566;2022-08-25T13:21:38;24.00;99.90
42365;DHT22;28498;54.400;18.566;2022-08-25T13:24:16;23.90;99.90
42365;DHT22;28498;54.400;18.566;2022-08-25T13:26:47;23.90;99.90
42365;DHT22;28498;54.400;18.566;2022-08-25T13:29:22;24.00;99.90
42365;DHT22;28498;54.400;18.566;2022-08-25T13:31:51;24.10;99.90
42365;DHT22;28498;54.400;18.566;2022-08-25T13:34:24;24.00;99.90
42365;DHT22;28498;54.400;18.566;2022-08-25T13:37:23;24.10;99.90
42365;DHT22;28498;54.400;18.566;2022-08-25T13:42:38;24.30;99.90
42365;DHT22;28498;54.400;18.566;2022-08-25T13:45:20;23.90;99.90
42365;DHT22;28498;54.400;18.566;2022-08-25T13:47:50;23.70;99.90
42365;DHT22;28498;54.400;18.566;2022-08-25T13:53:21;23.80;99.90
42365;DHT22;28498;54.400;18.566;2022-08-25T13:55:50;23.90;99.90
42365;DHT22;28498;54.400;18.566;2022-08-25T13:58:24;24.00;99.90
42365;DHT22;28498;54.400;18.566;2022-08-25T14:01:22;23.90;99.90
42365;DHT22;28498;54.400;18.566;2022-08-25T14:12:36;23.40;99.90
42365;DHT22;28498;54.400;18.566;2022-08-25T14:17:35;23.60;99.90
42365;DHT22;28498;54.400;18.566;2022-08-25T14:20:25;23.50;99.90
42365;DHT22;28498;54.400;18.566;2022-08-25T14:23:05;23.50;99.90
42365;DHT22;28498;54.400;18.566;2022-08-25T14:25:36;23.60;99.90
42365;DHT22;28498;54.400;18.566;2022-08-25T14:28:17;23.30;99.90
42365;DHT22;28498;54.400;18.566;2022-08-25T14:30:47;23.30;99.90
42365;DHT22;28498;54.400;18.566;2022-08-25T14:33:19;23.70;99.90
42365;DHT22;28498;54.400;18.566;2022-08-25T14:35:52;23.70;99.90
42365;DHT22;28498;54.400;18.566;2022-08-25T14:38:20;23.40;99.90
42365;DHT22;28498;54.400;18.566;2022-08-25T14:40:48;23.30;99.90
42365;DHT22;28498;54.400;18.566;2022-08-25T14:43:16;23.00;99.90
42365;DHT22;28498;54.400;18.566;2022-08-25T14:45:49;22.70;99.90
42365;DHT22;28498;54.400;18.566;2022-08-25T14:48:29;22.80;99.90
42365;DHT22;28498;54.400;18.566;2022-08-25T14:50:58;22.80;99.90
42365;DHT22;28498;54.400;18.566;2022-08-25T14:53:27;22.70;99.90
42365;DHT22;28498;54.400;18.566;2022-08-25T14:55:54;22.70;99.90
42365;DHT22;28498;54.400;18.566;2022-08-25T14:58:25;22.70;99.90
42365;DHT22;28498;54.400;18.566;2022-08-25T15:00:53;22.60;99.90
42365;DHT22;28498;54.400;18.566;2022-08-25T15:03:29;22.60;99.90
42365;DHT22;28498;54.400;18.566;2022-08-25T15:05:58;22.60;99.90
42365;DHT22;28498;54.400;18.566;2022-08-25T15:08:26;22.50;99.90
42365;DHT22;28498;54.400;18.566;2022-08-25T15:11:12;22.40;99.90
42365;DHT22;28498;54.400;18.566;2022-08-25T15:13:40;22.30;99.90
42365;DHT22;28498;54.400;18.566;2022-08-25T15:16:23;22.40;99.90
42365;DHT22;28498;54.400;18.566;2022-08-25T15:19:02;22.30;99.90
42365;DHT22;28498;54.400;18.566;2022-08-25T15:21:33;22.30;99.90
42365;DHT22;28498;54.400;18.566;2022-08-25T15:24:02;22.30;99.90
42365;DHT22;28498;54.400;18.566;2022-08-25T15:26:29;22.40;99.90
42365;DHT22;28498;54.400;18.566;2022-08-25T15:28:57;22.40;99.90
42365;DHT22;28498;54.400;18.566;2022-08-25T15:31:25;22.40;99.90
42365;DHT22;28498;54.400;18.566;2022-08-25T15:33:52;22.50;99.90
42365;DHT22;28498;54.400;18.566;2022-08-25T15:36:23;22.40;99.90
42365;DHT22;28498;54.400;18.566;2022-08-25T15:38:50;22.40;99.90
42365;DHT22;28498;54.400;18.566;2022-08-25T15:41:18;22.50;99.90
42365;DHT22;28498;54.400;18.566;2022-08-25T15:43:50;22.50;99.90
42365;DHT22;28498;54.400;18.566;2022-08-25T15:46:19;22.40;99.90
42365;DHT22;28498;54.400;18.566;2022-08-25T15:48:48;22.30;99.90
42365;DHT22;28498;54.400;18.566;2022-08-25T15:51:16;22.30;99.90
42365;DHT22;28498;54.400;18.566;2022-08-25T15:53:45;22.30;99.90
42365;DHT22;28498;54.400;18.566;2022-08-25T15:56:12;22.20;99.90
42365;DHT22;28498;54.400;18.566;2022-08-25T15:58:39;22.20;99.90
42365;DHT22;28498;54.400;18.566;2022-08-25T16:01:18;22.20;99.90
42365;DHT22;28498;54.400;18.566;2022-08-25T16:03:45;22.20;99.90
42365;DHT22;28498;54.400;18.566;2022-08-25T16:06:12;22.10;99.90
42365;DHT22;28498;54.400;18.566;2022-08-25T16:08:39;22.10;99.90
42365;DHT22;28498;54.400;18.566;2022-08-25T16:11:19;22.10;99.90
42365;DHT22;28498;54.400;18.566;2022-08-25T16:13:47;22.10;99.90
42365;DHT22;28498;54.400;18.566;2022-08-25T16:16:16;22.10;99.90
42365;DHT22;28498;54.400;18.566;2022-08-25T16:18:44;22.10;99.90
42365;DHT22;28498;54.400;18.566;2022-08-25T16:21:13;22.20;99.90
42365;DHT22;28498;54.400;18.566;2022-08-25T16:23:41;22.20;99.90
42365;DHT22;28498;54.400;18.566;2022-08-25T16:26:09;22.10;99.90
42365;DHT22;28498;54.400;18.566;2022-08-25T16:28:39;22.10;99.90
42365;DHT22;28498;54.400;18.566;2022-08-25T16:31:11;22.10;99.90
42365;DHT22;28498;54.400;18.566;2022-08-25T16:33:39;22.10;99.90
42365;DHT22;28498;54.400;18.566;2022-08-25T16:36:22;22.00;99.90
42365;DHT22;28498;54.400;18.566;2022-08-25T16:38:53;22.00;99.90
42365;DHT22;28498;54.400;18.566;2022-08-25T16:41:23;22.00;99.90
42365;DHT22;28498;54.400;18.566;2022-08-25T16:43:51;22.00;99.90
42365;DHT22;28498;54.400;18.566;2022-08-25T16:46:20;21.90;99.90
42365;DHT22;28498;54.400;18.566;2022-08-25T16:48:49;21.90;99.90
42365;DHT22;28498;54.400;18.566;2022-08-25T16:51:19;21.80;99.90
42365;DHT22;28498;54.400;18.566;2022-08-25T16:53:51;21.80;99.90
42365;DHT22;28498;54.400;18.566;2022-08-25T16:56:36;21.80;99.90
42365;DHT22;28498;54.400;18.566;2022-08-25T16:59:06;21.70;99.90
42365;DHT22;28498;54.400;18.566;2022-08-25T17:01:33;21.70;99.90
42365;DHT22;28498;54.400;18.566;2022-08-25T17:04:02;21.70;99.90
42365;DHT22;28498;54.400;18.566;2022-08-25T17:06:33;21.60;99.90
42365;DHT22;28498;54.400;18.566;2022-08-25T17:09:00;21.70;99.90
42365;DHT22;28498;54.400;18.566;2022-08-25T17:11:31;21.60;99.90
42365;DHT22;28498;54.400;18.566;2022-08-25T17:13:59;21.60;99.90
42365;DHT22;28498;54.400;18.566;2022-08-25T17:16:31;21.60;99.90
42365;DHT22;28498;54.400;18.566;2022-08-25T17:19:03;21.60;99.90
42365;DHT22;28498;54.400;18.566;2022-08-25T17:21:34;21.50;99.90
42365;DHT22;28498;54.400;18.566;2022-08-25T17:24:03;21.50;99.90
42365;DHT22;28498;54.400;18.566;2022-08-25T17:26:31;21.40;99.90
42365;DHT22;28498;54.400;18.566;2022-08-25T17:28:59;21.40;99.90
42365;DHT22;28498;54.400;18.566;2022-08-25T17:31:27;21.40;99.90
42365;DHT22;28498;54.400;18.566;2022-08-25T17:33:56;21.30;99.90
42365;DHT22;28498;54.400;18.566;2022-08-25T17:36:23;21.30;99.90
42365;DHT22;28498;54.400;18.566;2022-08-25T17:38:53;21.30;99.90
42365;DHT22;28498;54.400;18.566;2022-08-25T17:41:22;21.30;99.90
42365;DHT22;28498;54.400;18.566;2022-08-25T17:43:49;21.30;99.90
42365;DHT22;28498;54.400;18.566;2022-08-25T17:46:16;21.30;99.90
42365;DHT22;28498;54.400;18.566;2022-08-25T17:48:44;21.30;99.90
42365;DHT22;28498;54.400;18.566;2022-08-25T17:51:11;21.30;99.90
42365;DHT22;28498;54.400;18.566;2022-08-25T17:53:42;21.40;99.90
42365;DHT22;28498;54.400;18.566;2022-08-25T17:56:15;21.30;99.90
42365;DHT22;28498;54.400;18.566;2022-08-25T17:58:42;21.30;99.90
42365;DHT22;28498;54.400;18.566;2022-08-25T18:01:18;21.30;99.90
42365;DHT22;28498;54.400;18.566;2022-08-25T18:03:48;21.30;99.90